sensor_id;sensor_type;location;lat;lon;timestamp;P1;durP1;ratioP1;P2;durP2;ratioP2
16330;SDS011;8275;48.206;16.340;2023-05-07T00:00:26;3.05;;;2.83;;
16330;SDS011;8275;48.206;16.340;2023-05-07T00:02:56;3.75;;;2.50;;
16330;SDS011;8275;48.206;16.340;2023-05-07T00:05:25;3.15;;;2.88;;
16330;SDS011;8275;48.206;16.340;2023-05-07T00:07:54;3.10;;;2.90;;
16330;SDS011;8275;48.206;16.340;2023-05-07T00:10:25;2.83;;;2.55;;
16330;SDS011;8275;48.206;16.340;2023-05-07T00:12:53;2.80;;;2.60;;
16330;SDS011;8275;48.206;16.340;2023-05-07T00:15:22;2.85;;;2.65;;
16330;SDS011;8275;48.206;16.340;2023-05-07T00:17:50;5.20;;;3.47;;
16330;SDS011;8275;48.206;16.340;2023-05-07T00:20:19;3.35;;;3.05;;
16330;SDS011;8275;48.206;16.340;2023-05-07T00:22:48;4.00;;;3.00;;
16330;SDS011;8275;48.206;16.340;2023-05-07T00:25:17;2.80;;;2.33;;
16330;SDS011;8275;48.206;16.340;2023-05-07T00:27:46;3.63;;;3.35;;
16330;SDS011;8275;48.206;16.340;2023-05-07T00:30:15;5.30;;;4.88;;
16330;SDS011;8275;48.206;16.340;2023-05-07T00:32:43;5.22;;;4.72;;
16330;SDS011;8275;48.206;16.340;2023-05-07T00:35:12;6.90;;;4.65;;
16330;SDS011;8275;48.206;16.340;2023-05-07T00:37:40;5.35;;;4.85;;
16330;SDS011;8275;48.206;16.340;2023-05-07T00:40:10;5.97;;;5.13;;
16330;SDS011;8275;48.206;16.340;2023-05-07T00:42:39;6.68;;;6.07;;
16330;SDS011;8275;48.206;16.340;2023-05-07T00:45:08;5.65;;;5.15;;
16330;SDS011;8275;48.206;16.340;2023-05-07T00:47:37;4.50;;;4.10;;
16330;SDS011;8275;48.206;16.340;2023-05-07T00:50:06;4.50;;;4.10;;
16330;SDS011;8275;48.206;16.340;2023-05-07T00:52:39;4.72;;;4.25;;
16330;SDS011;8275;48.206;16.340;2023-05-07T00:55:08;4.40;;;3.67;;
16330;SDS011;8275;48.206;16.340;2023-05-07T00:57:41;4.57;;;3.90;;
16330;SDS011;8275;48.206;16.340;2023-05-07T01:00:10;4.53;;;3.50;;
16330;SDS011;8275;48.206;16.340;2023-05-07T01:02:40;4.43;;;4.03;;
16330;SDS011;8275;48.206;16.340;2023-05-07T01:05:10;3.70;;;3.40;;
16330;SDS011;8275;48.206;16.340;2023-05-07T01:07:43;5.88;;;3.20;;
16330;SDS011;8275;48.206;16.340;2023-05-07T01:10:13;2.92;;;2.72;;
16330;SDS011;8275;48.206;16.340;2023-05-07T01:12:42;3.88;;;2.90;;
16330;SDS011;8275;48.206;16.340;2023-05-07T01:15:13;2.78;;;2.55;;
16330;SDS011;8275;48.206;16.340;2023-05-07T01:17:42;2.40;;;2.20;;
16330;SDS011;8275;48.206;16.340;2023-05-07T01:20:11;2.40;;;2.20;;
16330;SDS011;8275;48.206;16.340;2023-05-07T01:22:41;2.83;;;2.60;;
16330;SDS011;8275;48.206;16.340;2023-05-07T01:25:11;2.35;;;2.15;;
16330;SDS011;8275;48.206;16.340;2023-05-07T01:27:39;2.13;;;2.00;;
16330;SDS011;8275;48.206;16.340;2023-05-07T01:30:08;1.95;;;1.85;;
16330;SDS011;8275;48.206;16.340;2023-05-07T01:32:40;2.17;;;1.98;;
16330;SDS011;8275;48.206;16.340;2023-05-07T01:35:14;2.60;;;2.40;;
16330;SDS011;8275;48.206;16.340;2023-05-07T01:37:47;20.33;;;18.23;;
16330;SDS011;8275;48.206;16.340;2023-05-07T01:40:16;4.75;;;4.35;;
16330;SDS011;8275;48.206;16.340;2023-05-07T01:42:45;2.83;;;2.63;;
16330;SDS011;8275;48.206;16.340;2023-05-07T01:45:14;3.17;;;2.10;;
16330;SDS011;8275;48.206;16.340;2023-05-07T01:47:43;2.58;;;2.38;;
16330;SDS011;8275;48.206;16.340;2023-05-07T01:50:12;2.67;;;1.58;;
16330;SDS011;8275;48.206;16.340;2023-05-07T01:52:43;1.67;;;1.58;;
16330;SDS011;8275;48.206;16.340;2023-05-07T01:55:13;1.70;;;1.60;;
16330;SDS011;8275;48.206;16.340;2023-05-07T01:57:41;1.80;;;1.70;;
16330;SDS011;8275;48.206;16.340;2023-05-07T02:00:10;2.30;;;1.63;;
16330;SDS011;8275;48.206;16.340;2023-05-07T02:02:39;2.38;;;1.77;;
16330;SDS011;8275;48.206;16.340;2023-05-07T02:05:08;1.80;;;1.70;;
16330;SDS011;8275;48.206;16.340;2023-05-07T02:07:37;2.05;;;1.88;;
16330;SDS011;8275;48.206;16.340;2023-05-07T02:10:06;2.97;;;2.58;;
16330;SDS011;8275;48.206;16.340;2023-05-07T02:12:36;2.88;;;1.70;;
16330;SDS011;8275;48.206;16.340;2023-05-07T02:15:05;2.10;;;1.92;;
16330;SDS011;8275;48.206;16.340;2023-05-07T02:17:35;3.05;;;2.65;;
16330;SDS011;8275;48.206;16.340;2023-05-07T02:20:07;2.83;;;2.53;;
16330;SDS011;8275;48.206;16.340;2023-05-07T02:22:39;4.80;;;2.92;;
16330;SDS011;8275;48.206;16.340;2023-05-07T02:25:08;2.47;;;2.28;;
16330;SDS011;8275;48.206;16.340;2023-05-07T02:27:38;2.83;;;2.63;;
16330;SDS011;8275;48.206;16.340;2023-05-07T02:30:07;2.97;;;2.63;;
16330;SDS011;8275;48.206;16.340;2023-05-07T02:32:36;2.63;;;2.42;;
16330;SDS011;8275;48.206;16.340;2023-05-07T02:35:05;3.25;;;3.00;;
16330;SDS011;8275;48.206;16.340;2023-05-07T02:37:34;2.78;;;2.58;;
16330;SDS011;8275;48.206;16.340;2023-05-07T02:40:03;3.47;;;3.17;;
16330;SDS011;8275;48.206;16.340;2023-05-07T02:42:33;2.50;;;2.30;;
16330;SDS011;8275;48.206;16.340;2023-05-07T02:45:03;3.63;;;3.33;;
16330;SDS011;8275;48.206;16.340;2023-05-07T02:47:33;3.20;;;2.90;;
16330;SDS011;8275;48.206;16.340;2023-05-07T02:50:01;3.85;;;3.55;;
16330;SDS011;8275;48.206;16.340;2023-05-07T02:52:31;3.00;;;2.80;;
16330;SDS011;8275;48.206;16.340;2023-05-07T02:54:59;2.95;;;2.75;;
16330;SDS011;8275;48.206;16.340;2023-05-07T02:57:28;3.25;;;2.72;;
16330;SDS011;8275;48.206;16.340;2023-05-07T02:59:57;3.17;;;2.88;;
16330;SDS011;8275;48.206;16.340;2023-05-07T03:02:27;3.92;;;3.55;;
16330;SDS011;8275;48.206;16.340;2023-05-07T03:04:56;3.38;;;3.08;;
16330;SDS011;8275;48.206;16.340;2023-05-07T03:07:24;3.67;;;3.38;;
16330;SDS011;8275;48.206;16.340;2023-05-07T03:09:52;8.18;;;3.15;;
16330;SDS011;8275;48.206;16.340;2023-05-07T03:12:21;3.80;;;3.47;;
16330;SDS011;8275;48.206;16.340;2023-05-07T03:14:49;3.47;;;3.22;;
16330;SDS011;8275;48.206;16.340;2023-05-07T03:17:17;2.97;;;2.72;;
16330;SDS011;8275;48.206;16.340;2023-05-07T03:19:47;4.38;;;3.00;;
16330;SDS011;8275;48.206;16.340;2023-05-07T03:22:16;3.83;;;3.53;;
16330;SDS011;8275;48.206;16.340;2023-05-07T03:24:44;3.55;;;3.25;;
16330;SDS011;8275;48.206;16.340;2023-05-07T03:27:13;3.85;;;3.55;;
16330;SDS011;8275;48.206;16.340;2023-05-07T03:29:41;3.85;;;3.55;;
16330;SDS011;8275;48.206;16.340;2023-05-07T03:32:09;4.65;;;4.35;;
16330;SDS011;8275;48.206;16.340;2023-05-07T03:34:38;5.13;;;4.57;;
16330;SDS011;8275;48.206;16.340;2023-05-07T03:37:08;4.55;;;4.15;;
16330;SDS011;8275;48.206;16.340;2023-05-07T03:39:36;4.00;;;3.65;;
16330;SDS011;8275;48.206;16.340;2023-05-07T03:42:05;5.57;;;4.32;;
16330;SDS011;8275;48.206;16.340;2023-05-07T03:44:33;5.60;;;5.10;;
16330;SDS011;8275;48.206;16.340;2023-05-07T03:47:02;5.75;;;4.93;;
16330;SDS011;8275;48.206;16.340;2023-05-07T03:49:31;5.25;;;4.70;;
16330;SDS011;8275;48.206;16.340;2023-05-07T03:51:59;6.25;;;5.75;;
16330;SDS011;8275;48.206;16.340;2023-05-07T03:54:29;7.32;;;6.60;;
16330;SDS011;8275;48.206;16.340;2023-05-07T03:56:58;6.55;;;5.95;;
16330;SDS011;8275;48.206;16.340;2023-05-07T03:59:26;8.75;;;7.95;;
16330;SDS011;8275;48.206;16.340;2023-05-07T04:01:55;8.85;;;7.97;;
16330;SDS011;8275;48.206;16.340;2023-05-07T04:04:23;8.65;;;7.82;;
16330;SDS011;8275;48.206;16.340;2023-05-07T04:06:52;7.85;;;7.05;;
16330;SDS011;8275;48.206;16.340;2023-05-07T04:09:20;9.98;;;9.05;;
16330;SDS011;8275;48.206;16.340;2023-05-07T04:11:50;9.32;;;8.40;;
16330;SDS011;8275;48.206;16.340;2023-05-07T04:14:19;10.07;;;9.13;;
16330;SDS011;8275;48.206;16.340;2023-05-07T04:16:47;11.13;;;10.05;;
16330;SDS011;8275;48.206;16.340;2023-05-07T04:19:15;12.02;;;9.77;;
16330;SDS011;8275;48.206;16.340;2023-05-07T04:21:44;12.40;;;11.30;;
16330;SDS011;8275;48.206;16.340;2023-05-07T04:24:12;11.48;;;10.40;;
16330;SDS011;8275;48.206;16.340;2023-05-07T04:26:41;11.85;;;10.35;;
16330;SDS011;8275;48.206;16.340;2023-05-07T04:29:11;12.30;;;11.10;;
16330;SDS011;8275;48.206;16.340;2023-05-07T04:31:39;11.05;;;10.05;;
16330;SDS011;8275;48.206;16.340;2023-05-07T04:34:10;11.77;;;10.70;;
16330;SDS011;8275;48.206;16.340;2023-05-07T04:36:39;11.35;;;10.20;;
16330;SDS011;8275;48.206;16.340;2023-05-07T04:39:07;11.52;;;10.35;;
16330;SDS011;8275;48.206;16.340;2023-05-07T04:41:36;11.65;;;10.55;;
16330;SDS011;8275;48.206;16.340;2023-05-07T04:44:05;11.57;;;10.48;;
16330;SDS011;8275;48.206;16.340;2023-05-07T04:46:35;12.15;;;9.82;;
16330;SDS011;8275;48.206;16.340;2023-05-07T04:49:04;11.43;;;10.10;;
16330;SDS011;8275;48.206;16.340;2023-05-07T04:51:33;12.52;;;11.40;;
16330;SDS011;8275;48.206;16.340;2023-05-07T04:54:01;12.32;;;11.15;;
16330;SDS011;8275;48.206;16.340;2023-05-07T04:56:29;12.85;;;11.43;;
16330;SDS011;8275;48.206;16.340;2023-05-07T04:58:58;11.93;;;10.73;;
16330;SDS011;8275;48.206;16.340;2023-05-07T05:01:26;11.80;;;10.68;;
16330;SDS011;8275;48.206;16.340;2023-05-07T05:03:56;13.48;;;12.13;;
16330;SDS011;8275;48.206;16.340;2023-05-07T05:06:26;12.55;;;11.45;;
16330;SDS011;8275;48.206;16.340;2023-05-07T05:08:55;12.52;;;11.35;;
16330;SDS011;8275;48.206;16.340;2023-05-07T05:11:23;12.73;;;11.55;;
16330;SDS011;8275;48.206;16.340;2023-05-07T05:13:52;11.55;;;10.52;;
16330;SDS011;8275;48.206;16.340;2023-05-07T05:16:20;13.13;;;12.02;;
16330;SDS011;8275;48.206;16.340;2023-05-07T05:18:48;11.77;;;10.70;;
16330;SDS011;8275;48.206;16.340;2023-05-07T05:21:19;14.90;;;11.50;;
16330;SDS011;8275;48.206;16.340;2023-05-07T05:23:48;12.23;;;11.10;;
16330;SDS011;8275;48.206;16.340;2023-05-07T05:26:16;14.82;;;13.32;;
16330;SDS011;8275;48.206;16.340;2023-05-07T05:28:45;13.15;;;11.75;;
16330;SDS011;8275;48.206;16.340;2023-05-07T05:31:13;13.40;;;12.10;;
16330;SDS011;8275;48.206;16.340;2023-05-07T05:33:42;15.57;;;13.95;;
16330;SDS011;8275;48.206;16.340;2023-05-07T05:36:11;15.60;;;14.18;;
16330;SDS011;8275;48.206;16.340;2023-05-07T05:38:41;15.27;;;13.68;;
16330;SDS011;8275;48.206;16.340;2023-05-07T05:41:10;14.80;;;13.35;;
16330;SDS011;8275;48.206;16.340;2023-05-07T05:43:38;16.13;;;14.60;;
16330;SDS011;8275;48.206;16.340;2023-05-07T05:46:06;12.80;;;11.27;;
16330;SDS011;8275;48.206;16.340;2023-05-07T05:48:38;14.23;;;12.73;;
16330;SDS011;8275;48.206;16.340;2023-05-07T05:51:06;15.05;;;13.60;;
16330;SDS011;8275;48.206;16.340;2023-05-07T05:53:35;14.77;;;13.38;;
16330;SDS011;8275;48.206;16.340;2023-05-07T05:56:05;16.23;;;14.63;;
16330;SDS011;8275;48.206;16.340;2023-05-07T05:58:34;16.05;;;14.35;;
16330;SDS011;8275;48.206;16.340;2023-05-07T06:01:02;13.70;;;12.40;;
16330;SDS011;8275;48.206;16.340;2023-05-07T06:03:31;14.95;;;13.48;;
16330;SDS011;8275;48.206;16.340;2023-05-07T06:06:00;15.00;;;13.50;;
16330;SDS011;8275;48.206;16.340;2023-05-07T06:08:29;13.38;;;12.13;;
16330;SDS011;8275;48.206;16.340;2023-05-07T06:10:58;13.15;;;11.95;;
16330;SDS011;8275;48.206;16.340;2023-05-07T06:13:28;14.82;;;13.32;;
16330;SDS011;8275;48.206;16.340;2023-05-07T06:15:56;14.77;;;13.35;;
16330;SDS011;8275;48.206;16.340;2023-05-07T06:18:25;14.93;;;12.80;;
16330;SDS011;8275;48.206;16.340;2023-05-07T06:20:53;14.27;;;12.70;;
16330;SDS011;8275;48.206;16.340;2023-05-07T06:23:22;13.77;;;12.48;;
16330;SDS011;8275;48.206;16.340;2023-05-07T06:25:50;13.25;;;12.05;;
16330;SDS011;8275;48.206;16.340;2023-05-07T06:28:19;12.63;;;11.27;;
16330;SDS011;8275;48.206;16.340;2023-05-07T06:30:48;13.85;;;12.52;;
16330;SDS011;8275;48.206;16.340;2023-05-07T06:33:17;14.68;;;13.23;;
16330;SDS011;8275;48.206;16.340;2023-05-07T06:35:46;13.85;;;12.35;;
16330;SDS011;8275;48.206;16.340;2023-05-07T06:38:14;13.48;;;12.18;;
16330;SDS011;8275;48.206;16.340;2023-05-07T06:40:43;16.00;;;13.52;;
16330;SDS011;8275;48.206;16.340;2023-05-07T06:43:15;12.32;;;11.23;;
16330;SDS011;8275;48.206;16.340;2023-05-07T06:45:43;14.45;;;13.10;;
16330;SDS011;8275;48.206;16.340;2023-05-07T06:48:13;11.88;;;10.88;;
16330;SDS011;8275;48.206;16.340;2023-05-07T06:50:41;13.13;;;11.82;;
16330;SDS011;8275;48.206;16.340;2023-05-07T06:53:10;13.18;;;11.95;;
16330;SDS011;8275;48.206;16.340;2023-05-07T06:55:38;13.25;;;12.05;;
16330;SDS011;8275;48.206;16.340;2023-05-07T06:58:07;14.27;;;12.98;;
16330;SDS011;8275;48.206;16.340;2023-05-07T07:00:36;14.73;;;12.82;;
16330;SDS011;8275;48.206;16.340;2023-05-07T07:03:04;13.57;;;12.18;;
16330;SDS011;8275;48.206;16.340;2023-05-07T07:05:34;14.25;;;12.77;;
16330;SDS011;8275;48.206;16.340;2023-05-07T07:08:03;13.95;;;12.65;;
16330;SDS011;8275;48.206;16.340;2023-05-07T07:10:32;12.02;;;11.02;;
16330;SDS011;8275;48.206;16.340;2023-05-07T07:13:01;13.57;;;12.20;;
16330;SDS011;8275;48.206;16.340;2023-05-07T07:15:29;13.10;;;11.80;;
16330;SDS011;8275;48.206;16.340;2023-05-07T07:17:57;13.88;;;12.48;;
16330;SDS011;8275;48.206;16.340;2023-05-07T07:20:26;14.93;;;13.43;;
16330;SDS011;8275;48.206;16.340;2023-05-07T07:22:56;13.85;;;12.55;;
16330;SDS011;8275;48.206;16.340;2023-05-07T07:25:26;14.55;;;13.15;;
16330;SDS011;8275;48.206;16.340;2023-05-07T07:27:54;13.50;;;12.20;;
16330;SDS011;8275;48.206;16.340;2023-05-07T07:30:22;13.25;;;11.95;;
16330;SDS011;8275;48.206;16.340;2023-05-07T07:32:51;13.75;;;12.52;;
16330;SDS011;8275;48.206;16.340;2023-05-07T07:35:20;12.70;;;11.48;;
16330;SDS011;8275;48.206;16.340;2023-05-07T07:37:48;13.25;;;12.07;;
16330;SDS011;8275;48.206;16.340;2023-05-07T07:40:18;12.85;;;11.75;;
16330;SDS011;8275;48.206;16.340;2023-05-07T07:42:47;12.48;;;11.38;;
16330;SDS011;8275;48.206;16.340;2023-05-07T07:45:16;12.23;;;11.13;;
16330;SDS011;8275;48.206;16.340;2023-05-07T07:47:44;12.27;;;11.23;;
16330;SDS011;8275;48.206;16.340;2023-05-07T07:50:13;13.18;;;11.98;;
16330;SDS011;8275;48.206;16.340;2023-05-07T07:53:01;11.95;;;10.95;;
16330;SDS011;8275;48.206;16.340;2023-05-07T07:55:31;12.55;;;11.32;;
16330;SDS011;8275;48.206;16.340;2023-05-07T07:57:59;15.57;;;10.98;;
16330;SDS011;8275;48.206;16.340;2023-05-07T08:00:27;12.80;;;11.60;;
16330;SDS011;8275;48.206;16.340;2023-05-07T08:02:56;11.88;;;10.80;;
16330;SDS011;8275;48.206;16.340;2023-05-07T08:05:25;12.40;;;11.27;;
16330;SDS011;8275;48.206;16.340;2023-05-07T08:07:53;10.80;;;9.77;;
16330;SDS011;8275;48.206;16.340;2023-05-07T08:10:21;11.77;;;10.80;;
16330;SDS011;8275;48.206;16.340;2023-05-07T08:12:51;12.50;;;11.30;;
16330;SDS011;8275;48.206;16.340;2023-05-07T08:15:20;11.63;;;10.60;;
16330;SDS011;8275;48.206;16.340;2023-05-07T08:17:48;13.23;;;10.15;;
16330;SDS011;8275;48.206;16.340;2023-05-07T08:20:17;12.13;;;11.02;;
16330;SDS011;8275;48.206;16.340;2023-05-07T08:22:45;11.85;;;10.65;;
16330;SDS011;8275;48.206;16.340;2023-05-07T08:25:14;13.75;;;12.57;;
16330;SDS011;8275;48.206;16.340;2023-05-07T08:27:42;11.90;;;10.88;;
16330;SDS011;8275;48.206;16.340;2023-05-07T08:30:13;11.23;;;9.95;;
16330;SDS011;8275;48.206;16.340;2023-05-07T08:32:42;10.93;;;9.73;;
16330;SDS011;8275;48.206;16.340;2023-05-07T08:35:11;11.05;;;9.93;;
16330;SDS011;8275;48.206;16.340;2023-05-07T08:37:39;11.80;;;10.55;;
16330;SDS011;8275;48.206;16.340;2023-05-07T08:40:08;10.93;;;9.85;;
16330;SDS011;8275;48.206;16.340;2023-05-07T08:42:39;10.90;;;9.90;;
16330;SDS011;8275;48.206;16.340;2023-05-07T08:45:09;9.57;;;8.75;;
16330;SDS011;8275;48.206;16.340;2023-05-07T08:47:42;11.45;;;10.35;;
16330;SDS011;8275;48.206;16.340;2023-05-07T08:50:14;12.35;;;10.98;;
16330;SDS011;8275;48.206;16.340;2023-05-07T08:52:42;10.18;;;9.27;;
16330;SDS011;8275;48.206;16.340;2023-05-07T08:55:11;10.82;;;9.82;;
16330;SDS011;8275;48.206;16.340;2023-05-07T08:57:41;10.82;;;9.82;;
16330;SDS011;8275;48.206;16.340;2023-05-07T09:00:10;10.90;;;9.90;;
16330;SDS011;8275;48.206;16.340;2023-05-07T09:02:41;11.32;;;9.65;;
16330;SDS011;8275;48.206;16.340;2023-05-07T09:05:10;10.43;;;9.43;;
16330;SDS011;8275;48.206;16.340;2023-05-07T09:07:39;10.10;;;9.20;;
16330;SDS011;8275;48.206;16.340;2023-05-07T09:10:08;7.80;;;7.20;;
16330;SDS011;8275;48.206;16.340;2023-05-07T09:12:37;9.55;;;8.55;;
16330;SDS011;8275;48.206;16.340;2023-05-07T09:15:06;9.45;;;8.55;;
16330;SDS011;8275;48.206;16.340;2023-05-07T09:17:36;10.65;;;8.63;;
16330;SDS011;8275;48.206;16.340;2023-05-07T09:20:07;10.63;;;9.73;;
16330;SDS011;8275;48.206;16.340;2023-05-07T09:22:37;9.85;;;8.95;;
16330;SDS011;8275;48.206;16.340;2023-05-07T09:25:06;10.90;;;9.25;;
16330;SDS011;8275;48.206;16.340;2023-05-07T09:27:37;11.18;;;10.07;;
16330;SDS011;8275;48.206;16.340;2023-05-07T09:30:05;11.32;;;9.82;;
16330;SDS011;8275;48.206;16.340;2023-05-07T09:32:35;12.35;;;11.10;;
16330;SDS011;8275;48.206;16.340;2023-05-07T09:35:08;11.23;;;10.18;;
16330;SDS011;8275;48.206;16.340;2023-05-07T09:37:43;15.88;;;10.40;;
16330;SDS011;8275;48.206;16.340;2023-05-07T09:40:20;11.23;;;10.23;;
16330;SDS011;8275;48.206;16.340;2023-05-07T09:42:49;10.23;;;9.20;;
16330;SDS011;8275;48.206;16.340;2023-05-07T09:45:21;10.70;;;9.80;;
16330;SDS011;8275;48.206;16.340;2023-05-07T09:47:53;11.98;;;10.85;;
16330;SDS011;8275;48.206;16.340;2023-05-07T09:50:26;9.55;;;8.57;;
16330;SDS011;8275;48.206;16.340;2023-05-07T09:52:57;10.13;;;9.23;;
16330;SDS011;8275;48.206;16.340;2023-05-07T09:55:26;9.55;;;8.65;;
16330;SDS011;8275;48.206;16.340;2023-05-07T09:57:55;8.80;;;8.00;;
16330;SDS011;8275;48.206;16.340;2023-05-07T10:00:26;9.88;;;9.07;;
16330;SDS011;8275;48.206;16.340;2023-05-07T10:02:57;10.23;;;9.32;;
16330;SDS011;8275;48.206;16.340;2023-05-07T10:05:27;8.68;;;7.88;;
16330;SDS011;8275;48.206;16.340;2023-05-07T10:07:56;9.90;;;8.98;;
16330;SDS011;8275;48.206;16.340;2023-05-07T10:10:27;9.05;;;7.97;;
16330;SDS011;8275;48.206;16.340;2023-05-07T10:12:56;7.70;;;7.00;;
16330;SDS011;8275;48.206;16.340;2023-05-07T10:15:25;8.18;;;7.38;;
16330;SDS011;8275;48.206;16.340;2023-05-07T10:17:55;8.00;;;7.22;;
16330;SDS011;8275;48.206;16.340;2023-05-07T10:20:24;10.27;;;8.77;;
16330;SDS011;8275;48.206;16.340;2023-05-07T10:22:56;10.07;;;9.18;;
16330;SDS011;8275;48.206;16.340;2023-05-07T10:25:28;8.82;;;8.00;;
16330;SDS011;8275;48.206;16.340;2023-05-07T10:27:59;10.20;;;9.38;;
16330;SDS011;8275;48.206;16.340;2023-05-07T10:30:35;9.20;;;8.07;;
16330;SDS011;8275;48.206;16.340;2023-05-07T10:33:16;9.50;;;8.60;;
16330;SDS011;8275;48.206;16.340;2023-05-07T10:35:52;10.35;;;9.35;;
16330;SDS011;8275;48.206;16.340;2023-05-07T10:38:26;10.35;;;8.95;;
16330;SDS011;8275;48.206;16.340;2023-05-07T10:40:55;12.18;;;8.52;;
16330;SDS011;8275;48.206;16.340;2023-05-07T10:43:24;9.75;;;8.82;;
16330;SDS011;8275;48.206;16.340;2023-05-07T10:46:09;9.48;;;8.60;;
16330;SDS011;8275;48.206;16.340;2023-05-07T10:51:40;9.55;;;8.65;;
16330;SDS011;8275;48.206;16.340;2023-05-07T10:54:21;9.05;;;8.27;;
16330;SDS011;8275;48.206;16.340;2023-05-07T10:56:51;9.02;;;8.30;;
16330;SDS011;8275;48.206;16.340;2023-05-07T10:59:35;9.52;;;8.60;;
16330;SDS011;8275;48.206;16.340;2023-05-07T11:02:09;9.43;;;8.63;;
16330;SDS011;8275;48.206;16.340;2023-05-07T11:04:40;8.90;;;8.13;;
16330;SDS011;8275;48.206;16.340;2023-05-07T11:07:15;8.73;;;7.93;;
16330;SDS011;8275;48.206;16.340;2023-05-07T11:10:00;11.23;;;10.15;;
16330;SDS011;8275;48.206;16.340;2023-05-07T11:12:49;8.73;;;7.95;;
16330;SDS011;8275;48.206;16.340;2023-05-07T11:15:38;10.48;;;9.55;;
16330;SDS011;8275;48.206;16.340;2023-05-07T11:18:10;11.32;;;8.75;;
16330;SDS011;8275;48.206;16.340;2023-05-07T11:20:53;9.38;;;8.57;;
16330;SDS011;8275;48.206;16.340;2023-05-07T11:26:41;8.10;;;7.45;;
16330;SDS011;8275;48.206;16.340;2023-05-07T11:29:16;8.52;;;7.82;;
16330;SDS011;8275;48.206;16.340;2023-05-07T11:31:48;8.43;;;7.72;;
16330;SDS011;8275;48.206;16.340;2023-05-07T11:34:21;8.52;;;7.82;;
16330;SDS011;8275;48.206;16.340;2023-05-07T11:36:52;7.82;;;7.13;;
16330;SDS011;8275;48.206;16.340;2023-05-07T11:39:29;8.07;;;7.47;;
16330;SDS011;8275;48.206;16.340;2023-05-07T11:42:00;8.38;;;7.68;;
16330;SDS011;8275;48.206;16.340;2023-05-07T11:44:41;9.00;;;8.20;;
16330;SDS011;8275;48.206;16.340;2023-05-07T11:47:17;8.07;;;7.28;;
16330;SDS011;8275;48.206;16.340;2023-05-07T11:49:48;7.60;;;6.97;;
16330;SDS011;8275;48.206;16.340;2023-05-07T11:52:18;9.65;;;7.20;;
16330;SDS011;8275;48.206;16.340;2023-05-07T11:54:51;8.30;;;7.60;;
16330;SDS011;8275;48.206;16.340;2023-05-07T11:57:21;8.30;;;7.60;;
16330;SDS011;8275;48.206;16.340;2023-05-07T11:59:52;7.07;;;6.53;;
16330;SDS011;8275;48.206;16.340;2023-05-07T12:02:21;8.10;;;7.45;;
16330;SDS011;8275;48.206;16.340;2023-05-07T12:04:51;7.20;;;6.63;;
16330;SDS011;8275;48.206;16.340;2023-05-07T12:07:20;8.07;;;7.40;;
16330;SDS011;8275;48.206;16.340;2023-05-07T12:09:48;8.00;;;7.30;;
16330;SDS011;8275;48.206;16.340;2023-05-07T12:12:19;7.47;;;6.88;;
16330;SDS011;8275;48.206;16.340;2023-05-07T12:14:47;7.20;;;6.60;;
16330;SDS011;8275;48.206;16.340;2023-05-07T12:17:16;7.68;;;7.15;;
16330;SDS011;8275;48.206;16.340;2023-05-07T12:19:45;7.70;;;7.10;;
16330;SDS011;8275;48.206;16.340;2023-05-07T12:22:14;8.60;;;7.75;;
16330;SDS011;8275;48.206;16.340;2023-05-07T12:24:43;8.55;;;7.85;;
16330;SDS011;8275;48.206;16.340;2023-05-07T12:27:14;7.63;;;6.95;;
16330;SDS011;8275;48.206;16.340;2023-05-07T12:29:44;7.47;;;6.88;;
16330;SDS011;8275;48.206;16.340;2023-05-07T12:32:13;7.80;;;7.10;;
16330;SDS011;8275;48.206;16.340;2023-05-07T12:34:43;7.22;;;6.63;;
16330;SDS011;8275;48.206;16.340;2023-05-07T12:37:11;8.10;;;7.40;;
16330;SDS011;8275;48.206;16.340;2023-05-07T12:39:44;8.10;;;7.35;;
16330;SDS011;8275;48.206;16.340;2023-05-07T12:42:16;6.60;;;6.10;;
16330;SDS011;8275;48.206;16.340;2023-05-07T12:44:49;7.72;;;7.13;;
16330;SDS011;8275;48.206;16.340;2023-05-07T12:47:18;6.93;;;6.32;;
16330;SDS011;8275;48.206;16.340;2023-05-07T12:49:49;7.32;;;6.72;;
16330;SDS011;8275;48.206;16.340;2023-05-07T12:52:17;7.10;;;6.40;;
16330;SDS011;8275;48.206;16.340;2023-05-07T12:54:46;6.75;;;6.25;;
16330;SDS011;8275;48.206;16.340;2023-05-07T12:57:18;7.25;;;6.65;;
16330;SDS011;8275;48.206;16.340;2023-05-07T12:59:47;6.55;;;6.03;;
16330;SDS011;8275;48.206;16.340;2023-05-07T13:02:16;6.40;;;5.80;;
16330;SDS011;8275;48.206;16.340;2023-05-07T13:04:44;6.15;;;5.65;;
16330;SDS011;8275;48.206;16.340;2023-05-07T13:07:14;6.03;;;5.53;;
16330;SDS011;8275;48.206;16.340;2023-05-07T13:09:42;5.25;;;4.85;;
16330;SDS011;8275;48.206;16.340;2023-05-07T13:12:10;6.40;;;5.90;;
16330;SDS011;8275;48.206;16.340;2023-05-07T13:14:40;6.22;;;5.72;;
16330;SDS011;8275;48.206;16.340;2023-05-07T13:17:08;6.32;;;5.82;;
16330;SDS011;8275;48.206;16.340;2023-05-07T13:19:37;6.43;;;5.93;;
16330;SDS011;8275;48.206;16.340;2023-05-07T13:22:05;6.22;;;5.72;;
16330;SDS011;8275;48.206;16.340;2023-05-07T13:24:34;6.57;;;6.07;;
16330;SDS011;8275;48.206;16.340;2023-05-07T13:27:02;5.32;;;4.93;;
16330;SDS011;8275;48.206;16.340;2023-05-07T13:29:30;6.07;;;5.57;;
16330;SDS011;8275;48.206;16.340;2023-05-07T13:32:00;5.10;;;4.72;;
16330;SDS011;8275;48.206;16.340;2023-05-07T13:34:29;6.18;;;5.38;;
16330;SDS011;8275;48.206;16.340;2023-05-07T13:36:57;6.30;;;5.10;;
16330;SDS011;8275;48.206;16.340;2023-05-07T13:39:25;5.65;;;5.25;;
16330;SDS011;8275;48.206;16.340;2023-05-07T13:41:54;5.60;;;5.20;;
16330;SDS011;8275;48.206;16.340;2023-05-07T13:44:22;5.88;;;5.38;;
16330;SDS011;8275;48.206;16.340;2023-05-07T13:46:51;5.93;;;5.40;;
16330;SDS011;8275;48.206;16.340;2023-05-07T13:49:21;6.05;;;5.57;;
16330;SDS011;8275;48.206;16.340;2023-05-07T13:51:50;5.82;;;5.30;;
16330;SDS011;8275;48.206;16.340;2023-05-07T13:54:18;5.10;;;4.70;;
16330;SDS011;8275;48.206;16.340;2023-05-07T13:56:47;4.85;;;4.43;;
16330;SDS011;8275;48.206;16.340;2023-05-07T13:59:15;5.30;;;4.90;;
16330;SDS011;8275;48.206;16.340;2023-05-07T14:01:43;5.55;;;5.03;;
16330;SDS011;8275;48.206;16.340;2023-05-07T14:04:12;5.78;;;5.28;;
16330;SDS011;8275;48.206;16.340;2023-05-07T14:06:41;5.28;;;4.88;;
16330;SDS011;8275;48.206;16.340;2023-05-07T14:09:10;6.25;;;5.65;;
16330;SDS011;8275;48.206;16.340;2023-05-07T14:11:39;5.25;;;4.85;;
16330;SDS011;8275;48.206;16.340;2023-05-07T14:14:08;5.18;;;4.78;;
16330;SDS011;8275;48.206;16.340;2023-05-07T14:16:37;5.22;;;4.72;;
16330;SDS011;8275;48.206;16.340;2023-05-07T14:19:06;4.47;;;4.18;;
16330;SDS011;8275;48.206;16.340;2023-05-07T14:21:34;5.93;;;5.43;;
16330;SDS011;8275;48.206;16.340;2023-05-07T14:24:05;4.57;;;4.18;;
16330;SDS011;8275;48.206;16.340;2023-05-07T14:26:34;4.82;;;4.43;;
16330;SDS011;8275;48.206;16.340;2023-05-07T14:29:03;4.90;;;4.40;;
16330;SDS011;8275;48.206;16.340;2023-05-07T14:31:31;4.47;;;4.05;;
16330;SDS011;8275;48.206;16.340;2023-05-07T14:34:00;4.93;;;4.53;;
16330;SDS011;8275;48.206;16.340;2023-05-07T14:36:28;4.50;;;3.83;;
16330;SDS011;8275;48.206;16.340;2023-05-07T14:38:58;5.93;;;4.93;;
16330;SDS011;8275;48.206;16.340;2023-05-07T14:41:27;4.25;;;3.85;;
16330;SDS011;8275;48.206;16.340;2023-05-07T14:43:56;3.92;;;3.63;;
16330;SDS011;8275;48.206;16.340;2023-05-07T14:46:25;4.35;;;4.05;;
16330;SDS011;8275;48.206;16.340;2023-05-07T14:48:54;4.35;;;3.92;;
16330;SDS011;8275;48.206;16.340;2023-05-07T14:51:22;3.97;;;3.67;;
16330;SDS011;8275;48.206;16.340;2023-05-07T14:53:52;4.13;;;3.83;;
16330;SDS011;8275;48.206;16.340;2023-05-07T14:56:20;4.25;;;3.60;;
16330;SDS011;8275;48.206;16.340;2023-05-07T14:58:50;4.20;;;3.75;;